createdAt,value
2019-04-29T00:00:13.518Z,8.17
2019-04-29T00:06:19.483Z,9.03
2019-04-29T00:12:27.278Z,7.40
2019-04-29T00:18:42.516Z,7.70
2019-04-29T00:24:48.757Z,8.77
2019-04-29T00:30:54.797Z,7.77
2019-04-29T00:37:10.297Z,8.97
2019-04-29T00:43:37.312Z,9.03
2019-04-29T00:49:43.468Z,8.47
2019-04-29T00:55:50.832Z,7.47
2019-04-29T01:01:56.687Z,7.20
2019-04-29T01:08:03.147Z,6.93
2019-04-29T01:14:09.185Z,6.70
2019-04-29T01:20:16.938Z,8.37
2019-04-29T01:26:44.705Z,7.50
2019-04-29T01:32:51.912Z,8.03
2019-04-29T01:39:01.055Z,7.77
2019-04-29T01:45:07.701Z,7.47
2019-04-29T01:51:13.908Z,7.47
2019-04-29T01:57:19.702Z,7.57
2019-04-29T02:03:25.450Z,7.83
2019-04-29T02:09:52.794Z,8.17
2019-04-29T02:15:58.546Z,8.90
2019-04-29T02:22:26.124Z,9.57
2019-04-29T02:28:32.023Z,7.37
2019-04-29T02:34:43.789Z,8.27
2019-04-29T02:40:57.286Z,9.07
2019-04-29T02:47:03.052Z,10.20
2019-04-29T02:53:08.780Z,8.93
2019-04-29T02:59:16.429Z,9.97
2019-04-29T03:05:25.211Z,8.80
2019-04-29T03:11:30.943Z,10.03
2019-04-29T03:17:37.435Z,11.23
2019-04-29T03:23:43.379Z,10.17
2019-04-29T03:29:49.106Z,11.53
2019-04-29T03:35:56.842Z,8.13
2019-04-29T03:42:06.757Z,9.63
2019-04-29T03:48:10.102Z,9.97
2019-04-29T03:54:15.826Z,10.10
2019-04-29T04:00:22.805Z,12.33
2019-04-29T04:06:43.942Z,8.67
2019-04-29T04:12:51.704Z,8.47
2019-04-29T04:19:06.788Z,8.50
2019-04-29T04:25:14.948Z,9.30
2019-04-29T04:31:20.716Z,9.60
2019-04-29T04:37:26.658Z,9.40
2019-04-29T04:43:32.441Z,8.07
2019-04-29T04:49:38.237Z,8.43
2019-04-29T04:55:47.552Z,10.53
2019-04-29T05:01:53.292Z,10.80
2019-04-29T05:07:59.154Z,10.00
2019-04-29T05:14:05.025Z,11.37
2019-04-29T05:20:11.349Z,12.47
2019-04-29T05:26:17.087Z,13.53
2019-04-29T05:32:22.848Z,11.93
2019-04-29T05:38:38.960Z,12.93
2019-04-29T05:44:50.379Z,14.13
2019-04-29T05:51:15.013Z,13.07
2019-04-29T05:57:25.221Z,12.83
2019-04-29T06:03:28.441Z,13.30
2019-04-29T06:09:34.219Z,15.03
2019-04-29T06:15:40.226Z,14.50
2019-04-29T06:21:46.014Z,16.10
2019-04-29T06:27:52.043Z,16.60
2019-04-29T06:34:00.669Z,17.73
2019-04-29T06:40:06.428Z,16.97
2019-04-29T06:46:12.174Z,17.87
2019-04-29T06:52:17.913Z,18.23
2019-04-29T06:58:23.806Z,16.40
2019-04-29T07:04:30.613Z,17.13
2019-04-29T07:10:37.513Z,18.17
2019-04-29T07:16:45.105Z,18.47
2019-04-29T07:22:51.023Z,16.87
2019-04-29T07:28:56.835Z,17.67
2019-04-29T07:35:05.869Z,16.27
2019-04-29T07:41:14.260Z,16.30
2019-04-29T07:47:19.434Z,16.00
2019-04-29T07:53:34.652Z,16.83
2019-04-29T07:59:33.861Z,17.90
2019-04-29T08:05:41.712Z,18.33
2019-04-29T08:11:49.223Z,17.60
2019-04-29T08:18:05.998Z,17.23
2019-04-29T08:24:04.199Z,19.63
2019-04-29T08:30:11.461Z,18.03
2019-04-29T08:36:17.878Z,17.67
2019-04-29T08:42:28.093Z,18.97
2019-04-29T08:48:36.123Z,18.07
2019-04-29T08:54:41.929Z,16.50
2019-04-29T09:00:51.449Z,16.23
2019-04-29T09:06:56.158Z,14.23
2019-04-29T09:13:01.895Z,13.50
2019-04-29T09:19:07.954Z,12.70
2019-04-29T09:26:01.895Z,11.10
2019-04-29T09:31:56.758Z,12.03
2019-04-29T09:38:02.511Z,12.00
2019-04-29T09:44:26.839Z,12.57
2019-04-29T09:50:34.309Z,12.80
2019-04-29T09:56:40.493Z,13.77
2019-04-29T10:02:57.983Z,15.00
2019-04-29T10:09:05.964Z,13.07
2019-04-29T10:15:13.766Z,14.30
2019-04-29T10:21:21.259Z,13.27
2019-04-29T10:27:27.677Z,11.23
2019-04-29T10:33:33.695Z,11.23
2019-04-29T10:39:48.247Z,12.73
2019-04-29T10:46:06.433Z,13.10
2019-04-29T10:52:12.601Z,12.13
2019-04-29T10:58:22.010Z,11.90
2019-04-29T11:04:31.726Z,7.93
2019-04-29T11:10:36.158Z,8.80
2019-04-29T11:16:46.658Z,9.63
2019-04-29T11:22:57.498Z,8.83
2019-04-29T11:29:07.391Z,7.17
2019-04-29T11:35:28.473Z,8.93
2019-04-29T11:41:45.229Z,9.20
2019-04-29T11:47:52.334Z,9.43
2019-04-29T11:53:58.395Z,8.10
2019-04-29T12:00:16.279Z,7.73
2019-04-29T12:06:23.203Z,8.07
2019-04-29T12:12:29.059Z,7.30
2019-04-29T12:18:39.824Z,6.80
2019-04-29T12:24:45.988Z,6.60
2019-04-29T12:30:53.819Z,6.60
2019-04-29T12:36:59.997Z,7.80
2019-04-29T12:43:23.018Z,8.07
2019-04-29T12:49:29.312Z,7.03
2019-04-29T12:55:45.220Z,7.27
2019-04-29T13:02:19.985Z,7.07
2019-04-29T13:08:31.410Z,8.00
2019-04-29T13:14:39.939Z,7.50
2019-04-29T13:20:50.753Z,7.37
2019-04-29T13:26:54.964Z,7.33
2019-04-29T13:33:05.063Z,7.40
2019-04-29T13:39:10.374Z,6.17
2019-04-29T13:45:20.112Z,7.30
2019-04-29T13:51:35.894Z,5.87
2019-04-29T13:57:36.098Z,6.20
2019-04-29T14:04:04.021Z,5.47
2019-04-29T14:10:14.808Z,4.83
2019-04-29T14:16:19.333Z,4.63
2019-04-29T14:22:25.530Z,4.13
2019-04-29T14:28:31.400Z,4.80
2019-04-29T14:34:59.642Z,3.60
2019-04-29T14:41:05.975Z,4.03
2019-04-29T14:47:21.075Z,4.03
2019-04-29T14:53:27.302Z,3.87
2019-04-29T14:59:33.560Z,4.03
2019-04-29T15:05:39.819Z,3.53
2019-04-29T15:11:58.910Z,3.67
2019-04-29T15:18:38.697Z,3.70
2019-04-29T15:24:32.318Z,3.03
2019-04-29T15:30:38.852Z,3.10
2019-04-29T15:36:44.677Z,3.20
2019-04-29T15:42:53.125Z,3.03
2019-04-29T15:48:58.012Z,3.43
2019-04-29T15:55:04.227Z,3.23
2019-04-29T16:01:14.693Z,3.10
2019-04-29T16:07:29.006Z,2.80
2019-04-29T16:13:35.056Z,3.27
2019-04-29T16:19:41.330Z,3.70
2019-04-29T16:25:52.159Z,3.50
2019-04-29T16:32:02.137Z,3.50
2019-04-29T16:38:05.810Z,3.37
2019-04-29T16:44:34.033Z,3.93
2019-04-29T16:50:19.607Z,3.87
2019-04-29T16:56:25.742Z,3.50
2019-04-29T17:02:31.876Z,6.40
2019-04-29T17:09:02.960Z,3.87
2019-04-29T17:15:14.941Z,3.73
2019-04-29T17:21:11.428Z,5.07
2019-04-29T17:27:28.207Z,5.10
2019-04-29T17:33:56.828Z,5.33
2019-04-29T17:40:03.019Z,5.60
2019-04-29T17:46:26.188Z,6.63
2019-04-29T17:52:32.316Z,5.97
2019-04-29T17:58:43.920Z,6.43
2019-04-29T18:05:07.921Z,7.27
2019-04-29T18:11:15.012Z,6.80
2019-04-29T18:17:27.214Z,8.23
2019-04-29T18:23:59.446Z,8.30
2019-04-29T18:30:07.272Z,8.73
2019-04-29T18:36:21.795Z,9.50
2019-04-29T18:42:21.026Z,10.53
2019-04-29T18:48:27.199Z,11.17
2019-04-29T18:54:35.607Z,10.57
2019-04-29T19:00:41.399Z,11.30
2019-04-29T19:06:51.240Z,12.00
2019-04-29T19:13:00.113Z,12.07
2019-04-29T19:19:02.895Z,13.10
2019-04-29T19:25:11.788Z,14.43
2019-04-29T19:31:17.278Z,14.53
2019-04-29T19:37:28.508Z,15.73
2019-04-29T19:43:33.655Z,15.37
2019-04-29T19:49:40.163Z,15.23
2019-04-29T19:55:47.274Z,15.47
2019-04-29T20:02:02.145Z,13.63
2019-04-29T20:08:01.470Z,14.80
2019-04-29T20:14:18.315Z,15.23
2019-04-29T20:20:34.967Z,16.23
2019-04-29T20:26:44.000Z,16.23
2019-04-29T20:32:49.369Z,16.67
2019-04-29T20:38:55.564Z,16.37
2019-04-29T20:45:02.037Z,14.03
2019-04-29T20:51:13.330Z,12.20
2019-04-29T20:57:20.509Z,11.17
2019-04-29T21:03:29.895Z,11.60
2019-04-29T21:09:31.237Z,11.30
2019-04-29T21:15:52.204Z,12.53
2019-04-29T21:21:55.203Z,12.13
2019-04-29T21:28:02.317Z,12.87
2019-04-29T21:34:11.295Z,14.00
2019-04-29T21:40:29.485Z,14.37
2019-04-29T21:46:37.314Z,15.30
2019-04-29T21:52:44.767Z,13.13
2019-04-29T21:58:50.920Z,14.67
2019-04-29T22:04:56.735Z,15.67
2019-04-29T22:11:04.867Z,16.47
2019-04-29T22:17:11.094Z,17.00
2019-04-29T22:23:17.456Z,17.27
2019-04-29T22:29:23.373Z,17.77
2019-04-29T22:35:32.747Z,18.53
2019-04-29T22:41:58.433Z,20.43
2019-04-29T22:48:14.286Z,19.90
2019-04-29T22:54:12.202Z,21.03
2019-04-29T23:00:27.914Z,20.30
2019-04-29T23:06:30.396Z,20.00
2019-04-29T23:12:36.359Z,20.70
2019-04-29T23:18:44.045Z,19.60
2019-04-29T23:25:07.629Z,20.10
2019-04-29T23:31:13.669Z,20.47
2019-04-29T23:37:23.951Z,20.80
2019-04-29T23:43:28.634Z,20.70
2019-04-29T23:49:41.989Z,21.20
2019-04-29T23:55:42.321Z,21.50
